Aviation Digital Data Service (ADDS)

Output produced by METARs form (0501 UTC 21 April 2015)
found at http://aviationweather.gov/adds/metars/
 
KBPT 210453Z AUTO 36004KT 10SM CLR 16/13 A3000 RMK AO2 SLP157 T01560133